sensor_id;sensor_type;location;lat;lon;timestamp;P1;durP1;ratioP1;P2;durP2;ratioP2
36211;SDS011;22247;48.586;13.492;2023-06-19T00:04:05;10.27;;;5.75;;
36211;SDS011;22247;48.586;13.492;2023-06-19T00:08:54;6.88;;;4.80;;
36211;SDS011;22247;48.586;13.492;2023-06-19T00:13:43;7.82;;;5.43;;
36211;SDS011;22247;48.586;13.492;2023-06-19T00:16:07;8.45;;;4.88;;
36211;SDS011;22247;48.586;13.492;2023-06-19T00:21:04;7.70;;;5.25;;
36211;SDS011;22247;48.586;13.492;2023-06-19T00:23:29;9.90;;;5.40;;
36211;SDS011;22247;48.586;13.492;2023-06-19T00:28:18;11.00;;;5.70;;
36211;SDS011;22247;48.586;13.492;2023-06-19T00:30:45;14.73;;;5.70;;
36211;SDS011;22247;48.586;13.492;2023-06-19T00:35:36;8.30;;;5.55;;
36211;SDS011;22247;48.586;13.492;2023-06-19T00:40:27;11.07;;;5.67;;
36211;SDS011;22247;48.586;13.492;2023-06-19T00:42:55;8.57;;;5.38;;
36211;SDS011;22247;48.586;13.492;2023-06-19T00:47:45;7.97;;;5.25;;
36211;SDS011;22247;48.586;13.492;2023-06-19T00:50:12;10.75;;;5.60;;
36211;SDS011;22247;48.586;13.492;2023-06-19T00:55:04;9.18;;;5.50;;
36211;SDS011;22247;48.586;13.492;2023-06-19T00:57:32;9.77;;;6.32;;
36211;SDS011;22247;48.586;13.492;2023-06-19T00:59:57;11.73;;;5.47;;
36211;SDS011;22247;48.586;13.492;2023-06-19T01:02:25;9.57;;;5.30;;
36211;SDS011;22247;48.586;13.492;2023-06-19T01:04:53;8.55;;;5.50;;
36211;SDS011;22247;48.586;13.492;2023-06-19T01:07:22;17.35;;;5.63;;
36211;SDS011;22247;48.586;13.492;2023-06-19T01:09:58;9.45;;;5.55;;
36211;SDS011;22247;48.586;13.492;2023-06-19T01:12:30;9.18;;;5.50;;
36211;SDS011;22247;48.586;13.492;2023-06-19T01:15:02;9.43;;;6.10;;
36211;SDS011;22247;48.586;13.492;2023-06-19T01:17:31;8.73;;;5.80;;
36211;SDS011;22247;48.586;13.492;2023-06-19T01:19:58;9.45;;;5.68;;
36211;SDS011;22247;48.586;13.492;2023-06-19T01:22:31;10.35;;;5.65;;
36211;SDS011;22247;48.586;13.492;2023-06-19T01:24:56;9.30;;;5.63;;
36211;SDS011;22247;48.586;13.492;2023-06-19T01:27:24;9.52;;;5.72;;
36211;SDS011;22247;48.586;13.492;2023-06-19T01:29:49;10.57;;;5.78;;
36211;SDS011;22247;48.586;13.492;2023-06-19T01:32:18;13.60;;;5.88;;
36211;SDS011;22247;48.586;13.492;2023-06-19T01:34:52;9.13;;;5.37;;
36211;SDS011;22247;48.586;13.492;2023-06-19T01:37:21;10.73;;;5.60;;
36211;SDS011;22247;48.586;13.492;2023-06-19T01:39:51;11.32;;;5.75;;
36211;SDS011;22247;48.586;13.492;2023-06-19T01:44:46;12.02;;;5.95;;
36211;SDS011;22247;48.586;13.492;2023-06-19T01:47:11;11.35;;;5.90;;
36211;SDS011;22247;48.586;13.492;2023-06-19T01:49:36;9.60;;;5.47;;
36211;SDS011;22247;48.586;13.492;2023-06-19T01:54:25;12.20;;;5.93;;
36211;SDS011;22247;48.586;13.492;2023-06-19T01:56:54;9.63;;;5.93;;
36211;SDS011;22247;48.586;13.492;2023-06-19T01:59:18;10.48;;;5.63;;
36211;SDS011;22247;48.586;13.492;2023-06-19T02:01:46;11.68;;;6.50;;
36211;SDS011;22247;48.586;13.492;2023-06-19T02:06:37;10.05;;;6.10;;
36211;SDS011;22247;48.586;13.492;2023-06-19T02:11:29;8.25;;;5.60;;
36211;SDS011;22247;48.586;13.492;2023-06-19T02:16:20;12.57;;;5.18;;
36211;SDS011;22247;48.586;13.492;2023-06-19T02:21:09;13.20;;;5.85;;
36211;SDS011;22247;48.586;13.492;2023-06-19T02:25:59;9.52;;;5.95;;
36211;SDS011;22247;48.586;13.492;2023-06-19T02:30:48;9.77;;;5.65;;
36211;SDS011;22247;48.586;13.492;2023-06-19T02:35:37;9.57;;;5.72;;
36211;SDS011;22247;48.586;13.492;2023-06-19T02:40:28;9.73;;;5.82;;
36211;SDS011;22247;48.586;13.492;2023-06-19T02:42:54;11.55;;;6.57;;
36211;SDS011;22247;48.586;13.492;2023-06-19T02:47:43;8.00;;;5.35;;
36211;SDS011;22247;48.586;13.492;2023-06-19T02:52:35;8.43;;;5.70;;
36211;SDS011;22247;48.586;13.492;2023-06-19T02:57:24;9.10;;;5.57;;
36211;SDS011;22247;48.586;13.492;2023-06-19T02:59:52;10.02;;;6.35;;
36211;SDS011;22247;48.586;13.492;2023-06-19T03:02:18;11.00;;;6.20;;
36211;SDS011;22247;48.586;13.492;2023-06-19T03:07:10;10.02;;;6.20;;
36211;SDS011;22247;48.586;13.492;2023-06-19T03:09:37;10.07;;;6.45;;
36211;SDS011;22247;48.586;13.492;2023-06-19T03:14:27;11.05;;;5.55;;
36211;SDS011;22247;48.586;13.492;2023-06-19T03:19:18;13.45;;;6.00;;
36211;SDS011;22247;48.586;13.492;2023-06-19T03:21:45;10.93;;;6.50;;
36211;SDS011;22247;48.586;13.492;2023-06-19T03:26:39;12.15;;;7.55;;
36211;SDS011;22247;48.586;13.492;2023-06-19T03:29:03;10.60;;;6.18;;
36211;SDS011;22247;48.586;13.492;2023-06-19T03:33:53;9.90;;;6.68;;
36211;SDS011;22247;48.586;13.492;2023-06-19T03:36:20;10.25;;;6.30;;
36211;SDS011;22247;48.586;13.492;2023-06-19T03:38:47;9.00;;;6.20;;
36211;SDS011;22247;48.586;13.492;2023-06-19T03:41:15;11.88;;;6.88;;
36211;SDS011;22247;48.586;13.492;2023-06-19T03:46:05;12.50;;;6.43;;
36211;SDS011;22247;48.586;13.492;2023-06-19T03:48:29;9.82;;;6.55;;
36211;SDS011;22247;48.586;13.492;2023-06-19T03:53:21;10.57;;;6.90;;
36211;SDS011;22247;48.586;13.492;2023-06-19T03:58:13;10.93;;;7.05;;
36211;SDS011;22247;48.586;13.492;2023-06-19T04:00:37;10.13;;;7.07;;
36211;SDS011;22247;48.586;13.492;2023-06-19T04:03:05;14.77;;;7.50;;
36211;SDS011;22247;48.586;13.492;2023-06-19T04:05:34;14.38;;;6.93;;
36211;SDS011;22247;48.586;13.492;2023-06-19T04:08:02;10.88;;;7.05;;
36211;SDS011;22247;48.586;13.492;2023-06-19T04:10:30;12.05;;;7.20;;
36211;SDS011;22247;48.586;13.492;2023-06-19T04:12:55;12.05;;;7.57;;
36211;SDS011;22247;48.586;13.492;2023-06-19T04:15:20;12.65;;;7.93;;
36211;SDS011;22247;48.586;13.492;2023-06-19T04:17:45;11.43;;;7.60;;
36211;SDS011;22247;48.586;13.492;2023-06-19T04:22:35;10.73;;;7.23;;
36211;SDS011;22247;48.586;13.492;2023-06-19T04:25:01;15.45;;;8.30;;
36211;SDS011;22247;48.586;13.492;2023-06-19T04:27:28;11.02;;;7.72;;
36211;SDS011;22247;48.586;13.492;2023-06-19T04:32:17;11.40;;;7.57;;
36211;SDS011;22247;48.586;13.492;2023-06-19T04:34:44;16.85;;;7.47;;
36211;SDS011;22247;48.586;13.492;2023-06-19T04:37:12;10.65;;;7.18;;
36211;SDS011;22247;48.586;13.492;2023-06-19T04:39:43;12.02;;;7.43;;
36211;SDS011;22247;48.586;13.492;2023-06-19T04:44:32;12.43;;;7.13;;
36211;SDS011;22247;48.586;13.492;2023-06-19T04:46:57;12.27;;;6.97;;
36211;SDS011;22247;48.586;13.492;2023-06-19T04:49:25;13.25;;;7.72;;
36211;SDS011;22247;48.586;13.492;2023-06-19T04:54:14;11.93;;;7.43;;
36211;SDS011;22247;48.586;13.492;2023-06-19T04:59:05;14.30;;;8.10;;
36211;SDS011;22247;48.586;13.492;2023-06-19T05:03:54;14.00;;;8.30;;
36211;SDS011;22247;48.586;13.492;2023-06-19T05:06:21;15.00;;;7.85;;
36211;SDS011;22247;48.586;13.492;2023-06-19T05:08:48;17.25;;;7.90;;
36211;SDS011;22247;48.586;13.492;2023-06-19T05:13:38;20.60;;;9.00;;
36211;SDS011;22247;48.586;13.492;2023-06-19T05:18:27;15.18;;;6.38;;
36211;SDS011;22247;48.586;13.492;2023-06-19T05:23:16;11.43;;;6.55;;
36211;SDS011;22247;48.586;13.492;2023-06-19T05:28:07;12.95;;;7.43;;
36211;SDS011;22247;48.586;13.492;2023-06-19T05:32:59;14.25;;;7.40;;
36211;SDS011;22247;48.586;13.492;2023-06-19T05:37:54;11.40;;;7.43;;
36211;SDS011;22247;48.586;13.492;2023-06-19T05:42:43;13.75;;;8.00;;
36211;SDS011;22247;48.586;13.492;2023-06-19T05:45:08;11.65;;;7.65;;
36211;SDS011;22247;48.586;13.492;2023-06-19T05:49:57;18.23;;;8.33;;
36211;SDS011;22247;48.586;13.492;2023-06-19T05:54:47;12.70;;;8.38;;
36211;SDS011;22247;48.586;13.492;2023-06-19T05:57:14;14.77;;;9.25;;
36211;SDS011;22247;48.586;13.492;2023-06-19T05:59:44;15.23;;;8.38;;
36211;SDS011;22247;48.586;13.492;2023-06-19T06:02:11;14.10;;;8.57;;
36211;SDS011;22247;48.586;13.492;2023-06-19T06:07:03;15.15;;;9.77;;
36211;SDS011;22247;48.586;13.492;2023-06-19T06:11:55;16.75;;;9.70;;
36211;SDS011;22247;48.586;13.492;2023-06-19T06:14:30;15.77;;;9.48;;
36211;SDS011;22247;48.586;13.492;2023-06-19T06:17:09;21.60;;;9.15;;
36211;SDS011;22247;48.586;13.492;2023-06-19T06:19:34;16.83;;;9.63;;
36211;SDS011;22247;48.586;13.492;2023-06-19T06:22:13;16.15;;;9.82;;
36211;SDS011;22247;48.586;13.492;2023-06-19T06:31:41;15.30;;;9.45;;
36211;SDS011;22247;48.586;13.492;2023-06-19T06:34:05;13.18;;;9.07;;
36211;SDS011;22247;48.586;13.492;2023-06-19T06:38:55;17.33;;;8.90;;
36211;SDS011;22247;48.586;13.492;2023-06-19T06:43:46;14.98;;;8.93;;
36211;SDS011;22247;48.586;13.492;2023-06-19T06:48:36;17.40;;;10.75;;
36211;SDS011;22247;48.586;13.492;2023-06-19T06:51:01;14.85;;;9.30;;
36211;SDS011;22247;48.586;13.492;2023-06-19T06:53:26;14.13;;;10.10;;
36211;SDS011;22247;48.586;13.492;2023-06-19T06:59:13;18.52;;;9.95;;
36211;SDS011;22247;48.586;13.492;2023-06-19T07:01:41;15.05;;;9.73;;
36211;SDS011;22247;48.586;13.492;2023-06-19T07:04:10;17.05;;;9.82;;
36211;SDS011;22247;48.586;13.492;2023-06-19T07:15:58;14.90;;;9.82;;
36211;SDS011;22247;48.586;13.492;2023-06-19T07:18:25;14.30;;;9.95;;
36211;SDS011;22247;48.586;13.492;2023-06-19T07:23:14;13.57;;;9.10;;
36211;SDS011;22247;48.586;13.492;2023-06-19T07:28:06;13.88;;;8.73;;
36211;SDS011;22247;48.586;13.492;2023-06-19T07:30:31;13.38;;;8.70;;
36211;SDS011;22247;48.586;13.492;2023-06-19T07:35:20;11.63;;;8.63;;
36211;SDS011;22247;48.586;13.492;2023-06-19T07:37:47;12.77;;;8.85;;
36211;SDS011;22247;48.586;13.492;2023-06-19T07:40:11;12.95;;;9.60;;
36211;SDS011;22247;48.586;13.492;2023-06-19T07:42:38;15.25;;;10.25;;
36211;SDS011;22247;48.586;13.492;2023-06-19T07:45:03;13.02;;;9.98;;
36211;SDS011;22247;48.586;13.492;2023-06-19T07:47:30;15.02;;;9.52;;
36211;SDS011;22247;48.586;13.492;2023-06-19T07:49:57;16.38;;;10.05;;
36211;SDS011;22247;48.586;13.492;2023-06-19T07:52:24;13.57;;;9.77;;
36211;SDS011;22247;48.586;13.492;2023-06-19T07:54:53;16.55;;;9.73;;
36211;SDS011;22247;48.586;13.492;2023-06-19T07:57:19;18.55;;;9.60;;
36211;SDS011;22247;48.586;13.492;2023-06-19T07:59:44;12.10;;;9.23;;
36211;SDS011;22247;48.586;13.492;2023-06-19T08:02:10;14.77;;;10.13;;
36211;SDS011;22247;48.586;13.492;2023-06-19T08:04:35;16.08;;;10.57;;
36211;SDS011;22247;48.586;13.492;2023-06-19T08:06:59;16.33;;;10.70;;
36211;SDS011;22247;48.586;13.492;2023-06-19T08:09:24;15.75;;;11.23;;
36211;SDS011;22247;48.586;13.492;2023-06-19T08:11:48;18.98;;;11.48;;
36211;SDS011;22247;48.586;13.492;2023-06-19T08:14:13;17.30;;;10.88;;
36211;SDS011;22247;48.586;13.492;2023-06-19T08:16:42;14.55;;;9.25;;
36211;SDS011;22247;48.586;13.492;2023-06-19T08:19:09;16.98;;;10.02;;
36211;SDS011;22247;48.586;13.492;2023-06-19T08:21:33;16.75;;;10.75;;
36211;SDS011;22247;48.586;13.492;2023-06-19T08:23:58;19.73;;;10.63;;
36211;SDS011;22247;48.586;13.492;2023-06-19T08:26:23;24.63;;;10.38;;
36211;SDS011;22247;48.586;13.492;2023-06-19T08:28:47;17.33;;;9.65;;
36211;SDS011;22247;48.586;13.492;2023-06-19T08:31:12;18.23;;;11.45;;
36211;SDS011;22247;48.586;13.492;2023-06-19T08:33:39;17.80;;;10.27;;
36211;SDS011;22247;48.586;13.492;2023-06-19T08:36:04;25.48;;;11.90;;
36211;SDS011;22247;48.586;13.492;2023-06-19T08:38:28;16.10;;;11.75;;
36211;SDS011;22247;48.586;13.492;2023-06-19T08:40:53;17.20;;;10.48;;
36211;SDS011;22247;48.586;13.492;2023-06-19T08:43:19;24.55;;;10.75;;
36211;SDS011;22247;48.586;13.492;2023-06-19T08:45:52;18.15;;;10.45;;
36211;SDS011;22247;48.586;13.492;2023-06-19T08:48:37;14.10;;;10.18;;
36211;SDS011;22247;48.586;13.492;2023-06-19T08:51:05;19.75;;;10.82;;
36211;SDS011;22247;48.586;13.492;2023-06-19T08:53:33;18.25;;;11.10;;
36211;SDS011;22247;48.586;13.492;2023-06-19T08:55:59;15.43;;;10.45;;
36211;SDS011;22247;48.586;13.492;2023-06-19T08:58:27;20.13;;;10.35;;
36211;SDS011;22247;48.586;13.492;2023-06-19T09:00:55;15.43;;;9.88;;
36211;SDS011;22247;48.586;13.492;2023-06-19T09:03:22;13.73;;;9.68;;
36211;SDS011;22247;48.586;13.492;2023-06-19T09:05:47;15.10;;;9.70;;
36211;SDS011;22247;48.586;13.492;2023-06-19T09:08:16;15.88;;;9.95;;
36211;SDS011;22247;48.586;13.492;2023-06-19T09:10:41;13.23;;;9.48;;
36211;SDS011;22247;48.586;13.492;2023-06-19T09:13:08;12.52;;;9.38;;
36211;SDS011;22247;48.586;13.492;2023-06-19T09:15:36;13.35;;;9.68;;
36211;SDS011;22247;48.586;13.492;2023-06-19T09:18:02;13.75;;;8.98;;
36211;SDS011;22247;48.586;13.492;2023-06-19T09:20:28;15.15;;;9.73;;
36211;SDS011;22247;48.586;13.492;2023-06-19T09:22:56;17.35;;;9.27;;
36211;SDS011;22247;48.586;13.492;2023-06-19T09:25:21;17.83;;;9.60;;
36211;SDS011;22247;48.586;13.492;2023-06-19T09:27:47;14.88;;;9.00;;
36211;SDS011;22247;48.586;13.492;2023-06-19T09:30:14;21.08;;;9.38;;
36211;SDS011;22247;48.586;13.492;2023-06-19T09:32:40;14.82;;;8.50;;
36211;SDS011;22247;48.586;13.492;2023-06-19T09:35:04;14.77;;;9.60;;
36211;SDS011;22247;48.586;13.492;2023-06-19T09:37:31;18.23;;;8.88;;
36211;SDS011;22247;48.586;13.492;2023-06-19T09:40:01;15.35;;;9.27;;
36211;SDS011;22247;48.586;13.492;2023-06-19T09:42:39;15.95;;;8.77;;
36211;SDS011;22247;48.586;13.492;2023-06-19T09:45:12;14.20;;;9.02;;
36211;SDS011;22247;48.586;13.492;2023-06-19T09:47:43;12.77;;;8.77;;
36211;SDS011;22247;48.586;13.492;2023-06-19T09:50:12;17.73;;;9.95;;
36211;SDS011;22247;48.586;13.492;2023-06-19T09:52:40;12.52;;;9.45;;
36211;SDS011;22247;48.586;13.492;2023-06-19T09:55:06;16.60;;;10.00;;
36211;SDS011;22247;48.586;13.492;2023-06-19T09:57:32;16.83;;;10.40;;
36211;SDS011;22247;48.586;13.492;2023-06-19T09:59:58;14.07;;;10.40;;
36211;SDS011;22247;48.586;13.492;2023-06-19T10:02:33;13.45;;;9.60;;
36211;SDS011;22247;48.586;13.492;2023-06-19T10:04:59;20.30;;;11.27;;
36211;SDS011;22247;48.586;13.492;2023-06-19T10:07:26;16.55;;;10.82;;
36211;SDS011;22247;48.586;13.492;2023-06-19T10:15:20;14.27;;;10.93;;
36211;SDS011;22247;48.586;13.492;2023-06-19T10:17:52;15.98;;;11.38;;
36211;SDS011;22247;48.586;13.492;2023-06-19T10:20:27;16.20;;;11.38;;
36211;SDS011;22247;48.586;13.492;2023-06-19T10:25:22;17.08;;;9.80;;
36211;SDS011;22247;48.586;13.492;2023-06-19T10:27:51;12.55;;;9.05;;
36211;SDS011;22247;48.586;13.492;2023-06-19T10:30:18;21.48;;;10.55;;
36211;SDS011;22247;48.586;13.492;2023-06-19T10:32:43;13.45;;;9.25;;
36211;SDS011;22247;48.586;13.492;2023-06-19T10:35:14;12.30;;;9.40;;
36211;SDS011;22247;48.586;13.492;2023-06-19T10:37:42;14.57;;;9.98;;
36211;SDS011;22247;48.586;13.492;2023-06-19T10:40:14;12.90;;;8.25;;
36211;SDS011;22247;48.586;13.492;2023-06-19T10:42:39;12.88;;;8.50;;
36211;SDS011;22247;48.586;13.492;2023-06-19T10:45:05;16.23;;;9.10;;
36211;SDS011;22247;48.586;13.492;2023-06-19T10:47:31;12.18;;;8.30;;
36211;SDS011;22247;48.586;13.492;2023-06-19T10:49:57;23.55;;;10.63;;
36211;SDS011;22247;48.586;13.492;2023-06-19T10:52:21;15.10;;;8.50;;
36211;SDS011;22247;48.586;13.492;2023-06-19T10:54:52;11.05;;;8.30;;
36211;SDS011;22247;48.586;13.492;2023-06-19T10:57:18;13.05;;;7.88;;
36211;SDS011;22247;48.586;13.492;2023-06-19T10:59:42;9.77;;;8.00;;
36211;SDS011;22247;48.586;13.492;2023-06-19T11:02:07;13.95;;;8.10;;
36211;SDS011;22247;48.586;13.492;2023-06-19T11:04:32;10.65;;;8.18;;
36211;SDS011;22247;48.586;13.492;2023-06-19T11:07:04;10.73;;;8.23;;
36211;SDS011;22247;48.586;13.492;2023-06-19T11:09:31;13.65;;;8.13;;
36211;SDS011;22247;48.586;13.492;2023-06-19T11:11:56;14.00;;;8.85;;
36211;SDS011;22247;48.586;13.492;2023-06-19T11:14:22;12.43;;;8.73;;
36211;SDS011;22247;48.586;13.492;2023-06-19T11:16:47;12.77;;;8.23;;
36211;SDS011;22247;48.586;13.492;2023-06-19T11:19:19;14.02;;;8.52;;
36211;SDS011;22247;48.586;13.492;2023-06-19T11:21:45;12.48;;;8.15;;
36211;SDS011;22247;48.586;13.492;2023-06-19T11:24:12;15.18;;;8.55;;
36211;SDS011;22247;48.586;13.492;2023-06-19T11:26:38;11.15;;;8.43;;
36211;SDS011;22247;48.586;13.492;2023-06-19T11:29:19;12.70;;;8.85;;
36211;SDS011;22247;48.586;13.492;2023-06-19T11:31:53;10.48;;;8.25;;
36211;SDS011;22247;48.586;13.492;2023-06-19T11:34:32;11.10;;;8.35;;
36211;SDS011;22247;48.586;13.492;2023-06-19T11:36:57;12.40;;;8.88;;
36211;SDS011;22247;48.586;13.492;2023-06-19T11:39:22;11.85;;;8.57;;
36211;SDS011;22247;48.586;13.492;2023-06-19T11:41:46;11.27;;;8.27;;
36211;SDS011;22247;48.586;13.492;2023-06-19T11:44:11;10.45;;;7.85;;
36211;SDS011;22247;48.586;13.492;2023-06-19T11:46:36;15.80;;;8.43;;
36211;SDS011;22247;48.586;13.492;2023-06-19T11:49:10;10.05;;;7.68;;
36211;SDS011;22247;48.586;13.492;2023-06-19T11:51:36;12.85;;;8.52;;
36211;SDS011;22247;48.586;13.492;2023-06-19T11:54:01;11.25;;;8.20;;
36211;SDS011;22247;48.586;13.492;2023-06-19T11:56:28;10.60;;;8.00;;
36211;SDS011;22247;48.586;13.492;2023-06-19T11:58:53;13.00;;;8.63;;
36211;SDS011;22247;48.586;13.492;2023-06-19T12:01:19;10.77;;;7.88;;
36211;SDS011;22247;48.586;13.492;2023-06-19T12:03:46;9.68;;;7.63;;
36211;SDS011;22247;48.586;13.492;2023-06-19T12:06:13;14.50;;;7.90;;
36211;SDS011;22247;48.586;13.492;2023-06-19T12:08:40;12.23;;;8.10;;
36211;SDS011;22247;48.586;13.492;2023-06-19T12:11:07;11.60;;;7.68;;
36211;SDS011;22247;48.586;13.492;2023-06-19T12:13:37;10.13;;;7.22;;
36211;SDS011;22247;48.586;13.492;2023-06-19T12:16:01;11.57;;;7.97;;
36211;SDS011;22247;48.586;13.492;2023-06-19T12:18:34;11.05;;;7.05;;
36211;SDS011;22247;48.586;13.492;2023-06-19T12:20:58;11.77;;;7.85;;
36211;SDS011;22247;48.586;13.492;2023-06-19T12:23:23;10.48;;;7.70;;
36211;SDS011;22247;48.586;13.492;2023-06-19T12:25:48;15.13;;;7.60;;
36211;SDS011;22247;48.586;13.492;2023-06-19T12:28:14;7.38;;;6.28;;
36211;SDS011;22247;48.586;13.492;2023-06-19T12:30:42;10.65;;;7.88;;
36211;SDS011;22247;48.586;13.492;2023-06-19T12:33:08;13.23;;;8.52;;
36211;SDS011;22247;48.586;13.492;2023-06-19T12:35:33;14.98;;;8.43;;
36211;SDS011;22247;48.586;13.492;2023-06-19T12:37:57;14.60;;;7.70;;
36211;SDS011;22247;48.586;13.492;2023-06-19T12:40:22;10.80;;;7.78;;
36211;SDS011;22247;48.586;13.492;2023-06-19T12:42:47;10.05;;;7.85;;
36211;SDS011;22247;48.586;13.492;2023-06-19T12:45:14;10.95;;;7.75;;
36211;SDS011;22247;48.586;13.492;2023-06-19T12:47:39;10.05;;;7.80;;
36211;SDS011;22247;48.586;13.492;2023-06-19T12:50:04;12.65;;;7.88;;
36211;SDS011;22247;48.586;13.492;2023-06-19T12:52:31;10.43;;;7.45;;
36211;SDS011;22247;48.586;13.492;2023-06-19T12:54:55;9.07;;;7.65;;
36211;SDS011;22247;48.586;13.492;2023-06-19T12:57:20;10.20;;;7.90;;
36211;SDS011;22247;48.586;13.492;2023-06-19T12:59:45;11.38;;;7.82;;
36211;SDS011;22247;48.586;13.492;2023-06-19T13:02:18;10.95;;;7.72;;
36211;SDS011;22247;48.586;13.492;2023-06-19T13:04:42;7.88;;;7.03;;
36211;SDS011;22247;48.586;13.492;2023-06-19T13:07:07;9.40;;;7.78;;
36211;SDS011;22247;48.586;13.492;2023-06-19T13:09:31;12.20;;;8.07;;
36211;SDS011;22247;48.586;13.492;2023-06-19T13:11:56;11.30;;;8.02;;
36211;SDS011;22247;48.586;13.492;2023-06-19T13:14:21;9.80;;;8.23;;
36211;SDS011;22247;48.586;13.492;2023-06-19T13:16:45;11.95;;;8.07;;
36211;SDS011;22247;48.586;13.492;2023-06-19T13:19:10;11.05;;;7.82;;
36211;SDS011;22247;48.586;13.492;2023-06-19T13:21:34;8.48;;;7.18;;
36211;SDS011;22247;48.586;13.492;2023-06-19T13:24:00;12.25;;;8.02;;
36211;SDS011;22247;48.586;13.492;2023-06-19T13:26:24;9.45;;;7.80;;
36211;SDS011;22247;48.586;13.492;2023-06-19T13:28:49;11.60;;;7.72;;
36211;SDS011;22247;48.586;13.492;2023-06-19T13:31:16;11.80;;;8.40;;
36211;SDS011;22247;48.586;13.492;2023-06-19T13:33:41;11.43;;;7.82;;
36211;SDS011;22247;48.586;13.492;2023-06-19T13:36:05;14.27;;;8.30;;
36211;SDS011;22247;48.586;13.492;2023-06-19T13:38:30;8.60;;;7.70;;
36211;SDS011;22247;48.586;13.492;2023-06-19T13:40:55;10.43;;;7.60;;
36211;SDS011;22247;48.586;13.492;2023-06-19T13:43:20;10.02;;;7.45;;
36211;SDS011;22247;48.586;13.492;2023-06-19T13:45:49;10.27;;;7.50;;
36211;SDS011;22247;48.586;13.492;2023-06-19T13:48:13;10.55;;;7.85;;
36211;SDS011;22247;48.586;13.492;2023-06-19T13:50:38;13.18;;;7.85;;
36211;SDS011;22247;48.586;13.492;2023-06-19T13:53:02;8.52;;;7.63;;
36211;SDS011;22247;48.586;13.492;2023-06-19T13:55:30;11.23;;;7.80;;
36211;SDS011;22247;48.586;13.492;2023-06-19T13:57:54;10.02;;;7.90;;
36211;SDS011;22247;48.586;13.492;2023-06-19T14:00:19;11.43;;;7.97;;
36211;SDS011;22247;48.586;13.492;2023-06-19T14:02:46;10.25;;;7.40;;
36211;SDS011;22247;48.586;13.492;2023-06-19T14:05:11;11.00;;;7.38;;
36211;SDS011;22247;48.586;13.492;2023-06-19T14:07:38;10.77;;;7.90;;
36211;SDS011;22247;48.586;13.492;2023-06-19T14:10:09;12.70;;;8.38;;
36211;SDS011;22247;48.586;13.492;2023-06-19T14:12:34;12.18;;;7.80;;
36211;SDS011;22247;48.586;13.492;2023-06-19T14:15:00;11.90;;;8.13;;
36211;SDS011;22247;48.586;13.492;2023-06-19T14:17:25;10.40;;;7.88;;
36211;SDS011;22247;48.586;13.492;2023-06-19T14:19:50;11.25;;;8.00;;
36211;SDS011;22247;48.586;13.492;2023-06-19T14:22:14;11.55;;;8.10;;
36211;SDS011;22247;48.586;13.492;2023-06-19T14:24:44;11.35;;;8.15;;
36211;SDS011;22247;48.586;13.492;2023-06-19T14:27:08;12.45;;;8.35;;
36211;SDS011;22247;48.586;13.492;2023-06-19T14:29:33;10.07;;;8.02;;
36211;SDS011;22247;48.586;13.492;2023-06-19T14:31:58;9.82;;;7.93;;
36211;SDS011;22247;48.586;13.492;2023-06-19T14:34:22;11.00;;;8.15;;
36211;SDS011;22247;48.586;13.492;2023-06-19T14:36:49;12.00;;;7.50;;
36211;SDS011;22247;48.586;13.492;2023-06-19T14:39:14;10.50;;;8.57;;
36211;SDS011;22247;48.586;13.492;2023-06-19T14:41:39;9.90;;;8.18;;
36211;SDS011;22247;48.586;13.492;2023-06-19T14:44:06;10.68;;;7.75;;
36211;SDS011;22247;48.586;13.492;2023-06-19T14:46:31;11.43;;;8.00;;
36211;SDS011;22247;48.586;13.492;2023-06-19T14:49:02;17.17;;;7.38;;
36211;SDS011;22247;48.586;13.492;2023-06-19T14:51:27;12.38;;;7.65;;
36211;SDS011;22247;48.586;13.492;2023-06-19T14:53:51;9.80;;;7.60;;
36211;SDS011;22247;48.586;13.492;2023-06-19T14:56:16;12.13;;;8.00;;
36211;SDS011;22247;48.586;13.492;2023-06-19T14:58:41;9.90;;;7.95;;
36211;SDS011;22247;48.586;13.492;2023-06-19T15:01:06;10.75;;;7.47;;
36211;SDS011;22247;48.586;13.492;2023-06-19T15:03:31;9.00;;;7.72;;
36211;SDS011;22247;48.586;13.492;2023-06-19T15:05:55;11.38;;;7.90;;
36211;SDS011;22247;48.586;13.492;2023-06-19T15:08:22;12.18;;;7.88;;
36211;SDS011;22247;48.586;13.492;2023-06-19T15:10:51;9.32;;;7.75;;
36211;SDS011;22247;48.586;13.492;2023-06-19T15:13:16;9.50;;;7.60;;
36211;SDS011;22247;48.586;13.492;2023-06-19T15:15:41;9.70;;;8.02;;
36211;SDS011;22247;48.586;13.492;2023-06-19T15:18:06;12.20;;;7.68;;
36211;SDS011;22247;48.586;13.492;2023-06-19T15:20:31;9.43;;;8.10;;
36211;SDS011;22247;48.586;13.492;2023-06-19T15:22:56;10.60;;;7.28;;
36211;SDS011;22247;48.586;13.492;2023-06-19T15:25:20;8.45;;;7.18;;
36211;SDS011;22247;48.586;13.492;2023-06-19T15:27:46;8.45;;;7.38;;
36211;SDS011;22247;48.586;13.492;2023-06-19T15:30:11;8.13;;;7.13;;
36211;SDS011;22247;48.586;13.492;2023-06-19T15:32:36;9.38;;;7.15;;
36211;SDS011;22247;48.586;13.492;2023-06-19T15:35:00;9.98;;;6.78;;
36211;SDS011;22247;48.586;13.492;2023-06-19T15:37:25;10.52;;;7.05;;
36211;SDS011;22247;48.586;13.492;2023-06-19T15:39:50;9.38;;;7.40;;
36211;SDS011;22247;48.586;13.492;2023-06-19T15:42:16;11.27;;;7.00;;
36211;SDS011;22247;48.586;13.492;2023-06-19T15:44:40;9.00;;;7.03;;
36211;SDS011;22247;48.586;13.492;2023-06-19T15:47:05;7.28;;;6.57;;
36211;SDS011;22247;48.586;13.492;2023-06-19T15:49:30;7.50;;;6.68;;
36211;SDS011;22247;48.586;13.492;2023-06-19T15:51:57;7.47;;;6.68;;
36211;SDS011;22247;48.586;13.492;2023-06-19T15:54:24;8.82;;;6.65;;
36211;SDS011;22247;48.586;13.492;2023-06-19T15:56:51;8.25;;;6.55;;
36211;SDS011;22247;48.586;13.492;2023-06-19T15:59:16;9.00;;;6.90;;
36211;SDS011;22247;48.586;13.492;2023-06-19T16:01:42;8.27;;;6.30;;
36211;SDS011;22247;48.586;13.492;2023-06-19T16:04:07;9.55;;;6.63;;
36211;SDS011;22247;48.586;13.492;2023-06-19T16:06:34;14.05;;;7.22;;
36211;SDS011;22247;48.586;13.492;2023-06-19T16:08:59;8.70;;;6.57;;
36211;SDS011;22247;48.586;13.492;2023-06-19T16:11:23;7.72;;;6.18;;
36211;SDS011;22247;48.586;13.492;2023-06-19T16:13:48;11.32;;;6.43;;
36211;SDS011;22247;48.586;13.492;2023-06-19T16:16:13;12.60;;;6.20;;
36211;SDS011;22247;48.586;13.492;2023-06-19T16:18:37;8.52;;;5.75;;
36211;SDS011;22247;48.586;13.492;2023-06-19T16:21:04;7.28;;;6.18;;
36211;SDS011;22247;48.586;13.492;2023-06-19T16:23:29;8.13;;;6.38;;
36211;SDS011;22247;48.586;13.492;2023-06-19T16:25:54;8.05;;;6.18;;
36211;SDS011;22247;48.586;13.492;2023-06-19T16:28:21;10.20;;;6.30;;
36211;SDS011;22247;48.586;13.492;2023-06-19T16:30:47;7.25;;;6.18;;
36211;SDS011;22247;48.586;13.492;2023-06-19T16:33:12;7.30;;;6.28;;
36211;SDS011;22247;48.586;13.492;2023-06-19T16:35:36;6.45;;;5.85;;
36211;SDS011;22247;48.586;13.492;2023-06-19T16:38:03;12.77;;;6.45;;
36211;SDS011;22247;48.586;13.492;2023-06-19T16:40:28;6.82;;;6.00;;
36211;SDS011;22247;48.586;13.492;2023-06-19T16:42:53;9.60;;;6.50;;
36211;SDS011;22247;48.586;13.492;2023-06-19T16:45:18;6.82;;;6.13;;
36211;SDS011;22247;48.586;13.492;2023-06-19T16:47:43;7.35;;;6.28;;
36211;SDS011;22247;48.586;13.492;2023-06-19T16:50:08;6.75;;;6.05;;
36211;SDS011;22247;48.586;13.492;2023-06-19T16:52:32;9.55;;;6.13;;
36211;SDS011;22247;48.586;13.492;2023-06-19T16:54:57;7.72;;;5.90;;